Flight Track Log - Related Links

Times and Time Zones

All times are in EDT time to prevent confusion due to time zone crossing. See the EJA951 flight status page for this flight to view local times or setup timezone preferences in your user account.

Time Position Orientation Groundspeed Altitude Reporting Facility
EDT Latitude Longitude Course Direction KTS MPH feet Rate Location/Type
Fri 10:41:30 AM 34.6656 -92.2408 176° South 230 265 3,500  Level Memphis Center
Fri 10:42:19 AM 34.6214 -92.2700 209° Southwest 259 298 6,300 3,205 Climbing Memphis Center
Fri 10:44:11 AM 34.5978 -92.4336 260° West 296 341 12,100 2,930 Climbing Memphis Center
Fri 10:45:11 AM 34.5483 -92.5206 235° Southwest 296 341 14,700 2,350 Climbing Memphis Center
Fri 10:46:11 AM 34.4906 -92.6075 231° Southwest 309 356 16,800 2,300 Climbing Memphis Center
Fri 10:47:11 AM 34.4369 -92.6917 232° Southwest 328 377 19,300 2,450 Climbing Memphis Center
Fri 10:48:11 AM 34.3808 -92.7781 232° Southwest 328 377 21,700 2,145 Climbing Memphis Center
Fri 10:49:56 AM 34.2869 -92.9169 231° Southwest 337 388 25,200 1,782 Climbing Fort Worth Center
Fri 10:50:56 AM 34.2256 -93.0106 232° Southwest 337 388 26,600 1,200 Climbing Fort Worth Center
Fri 10:51:56 AM 34.1619 -93.1039 231° Southwest 352 405 27,600 1,250 Climbing Fort Worth Center
Fri 10:52:56 AM 34.0967 -93.2075 233° Southwest 372 428 29,100 1,450 Climbing Fort Worth Center
Fri 10:53:56 AM 34.0289 -93.3061 230° Southwest 384 442 30,500 1,190 Climbing Fort Worth Center
Fri 10:54:57 AM 33.9614 -93.4069 231° Southwest 384 442 31,500 1,000 Climbing Fort Worth Center
Fri 10:55:56 AM 33.8917 -93.5128 232° Southwest 396 456 32,500 958 Climbing Fort Worth Center
Fri 10:56:56 AM 33.8197 -93.6208 231° Southwest 408 470 33,400 850 Climbing Fort Worth Center
Fri 10:57:56 AM 33.7478 -93.7289 231° Southwest 413 475 34,200 750 Climbing Fort Worth Center
Fri 10:58:56 AM 33.6719 -93.8419 231° Southwest 423 487 34,900 750 Climbing Fort Worth Center
Fri 10:59:56 AM 33.5936 -93.9522 230° Southwest 431 496 35,700 550 Climbing Fort Worth Center
Fri 11:00:56 AM 33.5133 -94.0750 232° Southwest 449 517 36,000 150 Climbing Fort Worth Center
Fri 11:01:56 AM 33.4222 -94.1831 225° Southwest 463 533 36,000 500 Level Fort Worth Center
Fri 11:02:56 AM 33.3289 -94.2908 224° Southwest 472 543 37,000 1,000 Climbing Fort Worth Center
Fri 11:03:56 AM 33.2211 -94.4064 222° Southwest 473 544 38,000 1,000 Climbing Fort Worth Center
Fri 11:04:56 AM 33.1297 -94.5136 225° Southwest 473 544 39,000 1,000 Climbing Fort Worth Center
Fri 11:05:56 AM 33.0361 -94.6208 224° Southwest 473 544 40,000 500 Climbing Fort Worth Center
Fri 11:06:56 AM 32.9467 -94.7300 226° Southwest 465 535 40,000  Level Fort Worth Center
Fri 11:07:56 AM 32.8489 -94.8417 224° Southwest 477 549 40,000  Level Fort Worth Center
Fri 11:08:56 AM 32.7508 -94.9483 222° Southwest 482 555 40,000  Level Fort Worth Center
Fri 11:09:56 AM 32.6550 -95.0619 225° Southwest 482 555 40,000  Level Fort Worth Center
Fri 11:10:56 AM 32.5544 -95.1706 222° Southwest 487 560 40,000  Level Fort Worth Center
Fri 11:11:56 AM 32.4542 -95.2789 222° Southwest 487 560 40,000  Level Fort Worth Center
Fri 11:12:56 AM 32.3558 -95.3919 224° Southwest 492 566 40,000  Level Fort Worth Center
Fri 11:13:56 AM 32.2553 -95.5022 223° Southwest 492 566 40,000  Level Fort Worth Center
Fri 11:14:56 AM 32.1567 -95.6147 224° Southwest 492 566 40,000  Level Fort Worth Center
Fri 11:15:56 AM 32.0558 -95.7219 222° Southwest 492 566 40,000  Level Fort Worth Center
Fri 11:16:56 AM 31.9572 -95.8317 223° Southwest 492 566 40,000  Level Fort Worth Center
Fri 11:17:56 AM 31.8767 -95.9236 224° Southwest 492 566 40,000  Level Fort Worth Center
Fri 11:18:56 AM 31.7694 -96.0400 223° Southwest 492 566 40,000  Level Fort Worth Center
Fri 11:21:01 AM 31.5500 -96.2786 223° Southwest 496 571 40,000  Level Houston Center
Fri 11:22:03 AM 31.4472 -96.3892 223° Southwest 496 571 40,000  Level Houston Center
Fri 11:23:05 AM 31.3458 -96.5000 223° Southwest 493 567 40,000  Level Houston Center
Fri 11:24:07 AM 31.2436 -96.6106 223° Southwest 494 568 40,000  Level Houston Center
Fri 11:25:10 AM 31.1408 -96.7206 223° Southwest 495 570 40,000  Level Houston Center
Fri 11:26:12 AM 31.0369 -96.8297 222° Southwest 495 570 40,000  Level Houston Center
Fri 11:27:14 AM 30.9339 -96.9397 222° Southwest 494 568 40,000  Level Houston Center
Fri 11:28:16 AM 30.8292 -97.0508 222° Southwest 496 571 40,000  Level Houston Center
Fri 11:29:18 AM 30.7228 -97.1631 222° Southwest 501 577 40,000  Level Houston Center
Fri 11:30:20 AM 30.6189 -97.2744 223° Southwest 499 574 40,000  Level Houston Center
Fri 11:31:22 AM 30.4975 -97.4033 222° Southwest 499 574 40,000  Level Houston Center
Fri 11:32:24 AM 30.3953 -97.5122 223° Southwest 495 570 40,000  Level Houston Center
Fri 11:33:26 AM 30.3003 -97.6278 226° Southwest 490 564 40,000  Level Houston Center
Fri 11:34:28 AM 30.2083 -97.7478 228° Southwest 491 565 40,000  Level Houston Center
Fri 11:35:30 AM 30.1083 -97.8747 228° Southwest 492 566 40,000 -1,008 Level Houston Center
Fri 11:36:33 AM 30.0103 -98.0000 228° Southwest 489 563 37,900 -2,304 Descending Houston Center
Fri 11:37:35 AM 29.9214 -98.1106 227° Southwest 472 543 35,200 -2,661 Descending Houston Center
Fri 11:38:37 AM 29.8283 -98.2294 228° Southwest 465 535 32,400 -2,565 Descending Houston Center
Fri 11:39:39 AM 29.7411 -98.3397 228° Southwest 467 537 29,900 -2,565 Descending Houston Center
Fri 11:40:41 AM 29.6475 -98.4553 227° Southwest 460 529 27,100 -2,419 Descending Houston Center
Fri 11:41:43 AM 29.5481 -98.5267 212° Southwest 454 522 24,900 -1,500 Descending Houston Center
Fri 11:42:45 AM 29.4336 -98.5972 208° Southwest 425 489 24,000 -435 Descending Houston Center
Fri 11:43:47 AM 29.3319 -98.6628 209° Southwest 420 483 24,000 -968 Level Houston Center
Fri 11:44:49 AM 29.2219 -98.7333 209° Southwest 422 486 22,000 -2,177 Descending Houston Center
Fri 11:45:51 AM 29.1183 -98.7986 209° Southwest 425 489 19,500 -2,448 Descending Houston Center
Fri 11:46:54 AM 29.0122 -98.8669 209° Southwest 408 470 16,900 -2,352 Descending Houston Center
Fri 11:47:56 AM 28.9181 -98.9264 209° Southwest 389 448 14,600 -2,032 Descending Houston Center
Fri 11:48:58 AM 28.8417 -98.9931 217° Southwest 321 369 12,700 -1,597 Descending Houston Center
Fri 11:50:00 AM 28.7872 -99.0408 218° Southwest 298 343 11,300 -2,129 Descending Houston Center
Fri 11:51:02 AM 28.7175 -99.1072 220° Southwest 276 318 8,300 -2,806 Descending Houston Center
Fri 11:52:04 AM 28.6581 -99.1617 219° Southwest 275 316 5,500 -2,129 Descending Houston Center
Fri 11:53:06 AM 28.6039 -99.2083 217° Southwest 263 303 3,900 -1,548 Descending Houston Center

Login

Don't have an account? Register now (free) for customized features, flight alerts, and more!